Oaklevel, Virginia
Current Conditions -  °F | °C
As of 8:35 AM on Friday 28 Nov 2014 (Local Time) from KMTV Reporting Station
Overcast Overcast  
Wind Chill: 25°   Ceiling: 4100
Heat Index: 33°   Visibility: 10mi
Dew Point: 17°   Wind: 10mph
Humidity: 51%   Direction: 320°NW
Pressure: 30.39"   Gusts: NA
Location:  36.7587°N, 79.9987°W
Report Text: KMTV 281335Z AUTO 32009KT 10SM OVC041 01/M08 A3039 RMK AO2 T00061085
Loading
Personal Weather Stations






























Interactive Weather Map New forecast layout! Learn more

10-Day Weather Forecast

Advertisements
Track Severe Weather on mobile